Time;durP1;ratioP1;P1;durP2;ratioP2;P2;SDS_P1;SDS_P2;PMS_P1;PMS_P2;Temp;Humidity;BMP_temperature;BMP_pressure;BME280_temperature;BME280_humidity;BME280_pressure;Samples;Min_cycle;Max_cycle;Signal;HPM_P1;HPM_P2
2023/06/27 00:03:51;;;;;;;12.50;11.60;;;14.70;99.90;;;;;;2610453;54;20123;-73
2023/06/27 00:09:39;;;;;;;12.63;11.93;;;14.50;99.90;;;;;;2611110;54;20133;-74
2023/06/27 00:15:33;;;;;;;13.83;12.93;;;14.30;99.90;;;;;;2610035;54;20423;-74
2023/06/27 00:21:28;;;;;;;12.07;11.20;;;14.30;99.90;;;;;;2612535;54;20391;-75
2023/06/27 00:24:34;;;;;;;12.07;11.37;;;14.40;99.90;;;;;;2611365;54;20442;-74
2023/06/27 00:30:35;;;;;;;11.80;11.17;;;14.50;99.90;;;;;;2610469;54;20398;-75
2023/06/27 00:36:24;;;;;;;12.60;11.90;;;14.60;99.90;;;;;;2611748;54;20509;-74
2023/06/27 00:42:11;;;;;;;11.43;10.83;;;14.60;99.90;;;;;;2610881;54;20399;-75
2023/06/27 00:48:00;;;;;;;12.30;11.63;;;14.40;99.90;;;;;;2610661;54;20664;-74
2023/06/27 00:53:48;;;;;;;11.57;10.77;;;14.40;99.90;;;;;;2611166;54;20387;-74
2023/06/27 00:59:37;;;;;;;13.07;12.37;;;14.30;99.90;;;;;;2611902;54;20129;-75
2023/06/27 01:05:25;;;;;;;11.80;10.97;;;14.20;99.90;;;;;;2613802;54;20411;-74
2023/06/27 01:17:33;;;;;;;10.93;10.20;;;14.10;99.90;;;;;;2612981;54;20518;-74
2023/06/27 01:45:58;;;;;;;11.20;10.53;;;14.10;99.90;;;;;;2610539;54;20937;-75
2023/06/27 01:51:47;;;;;;;11.07;10.40;;;14.20;99.90;;;;;;2609987;39;20634;-75
2023/06/27 01:57:35;;;;;;;11.27;10.37;;;14.10;99.90;;;;;;2611363;54;20385;-74
2023/06/27 02:03:23;;;;;;;11.30;10.60;;;14.00;99.90;;;;;;2611971;54;20358;-74
2023/06/27 02:09:11;;;;;;;11.80;11.10;;;14.10;99.90;;;;;;2611311;54;20262;-74
2023/06/27 02:14:58;;;;;;;11.77;10.80;;;14.10;99.90;;;;;;2611827;54;20131;-74
2023/06/27 02:20:46;;;;;;;11.63;10.70;;;14.20;99.90;;;;;;2612326;54;20146;-75
2023/06/27 02:26:34;;;;;;;11.80;11.00;;;14.30;99.90;;;;;;2611348;54;20111;-74
2023/06/27 02:35:44;;;;;;;11.57;10.87;;;14.40;99.90;;;;;;2611490;54;20383;-74
2023/06/27 02:41:32;;;;;;;11.57;10.67;;;14.30;99.90;;;;;;2612149;54;20157;-74
2023/06/27 02:47:20;;;;;;;12.43;11.60;;;14.20;99.90;;;;;;2611565;54;20162;-75
2023/06/27 02:53:07;;;;;;;11.30;10.60;;;14.10;99.90;;;;;;2611569;54;20282;-75
2023/06/27 02:58:55;;;;;;;11.53;10.50;;;14.20;99.90;;;;;;2610908;46;20142;-75
2023/06/27 03:04:44;;;;;;;10.90;10.20;;;14.30;99.90;;;;;;2612129;31;20592;-73
2023/06/27 03:10:32;;;;;;;10.10;9.30;;;14.40;99.90;;;;;;2613853;39;20720;-74
2023/06/27 03:16:20;;;;;;;10.97;10.17;;;14.50;99.90;;;;;;2612176;54;20126;-73
2023/06/27 03:22:07;;;;;;;12.30;11.30;;;14.60;99.90;;;;;;2611155;39;20546;-73
2023/06/27 03:24:52;;;;;;;12.10;11.30;;;14.70;99.90;;;;;;2610990;54;20423;-73
2023/06/27 03:27:23;;;;;;;11.87;10.70;;;14.80;99.90;;;;;;2610040;54;20146;-73
2023/06/27 03:36:33;;;;;;;11.63;10.87;;;14.90;99.90;;;;;;2610413;54;20394;-72
2023/06/27 03:42:21;;;;;;;12.30;11.13;;;14.90;99.90;;;;;;2610594;54;20135;-72
2023/06/27 03:48:09;;;;;;;12.07;10.90;;;15.00;99.90;;;;;;2611233;54;20230;-73
2023/06/27 03:53:58;;;;;;;11.47;10.80;;;15.20;99.90;;;;;;2611277;54;20231;-73
2023/06/27 03:59:46;;;;;;;11.87;10.97;;;15.30;99.90;;;;;;2611778;54;20462;-72
2023/06/27 04:05:33;;;;;;;12.50;11.50;;;15.30;99.90;;;;;;2611763;54;20934;-74
2023/06/27 04:11:22;;;;;;;12.47;10.80;;;15.30;99.90;;;;;;2611192;54;20167;-72
2023/06/27 04:17:09;;;;;;;11.57;10.77;;;15.20;99.90;;;;;;2610066;54;20495;-73
2023/06/27 04:22:57;;;;;;;11.30;10.30;;;15.40;99.90;;;;;;2610908;54;20143;-72
2023/06/27 04:28:47;;;;;;;10.13;9.40;;;15.50;99.90;;;;;;2614821;54;20753;-72
2023/06/27 04:31:50;;;;;;;10.57;9.87;;;15.50;99.90;;;;;;2614163;54;20403;-73
2023/06/27 04:34:16;;;;;;;11.73;10.70;;;15.60;99.90;;;;;;2614915;54;20447;-73
2023/06/27 04:40:04;;;;;;;16.03;10.53;;;15.70;99.90;;;;;;2611252;54;20395;-73
2023/06/27 04:45:52;;;;;;;11.37;10.47;;;16.10;99.90;;;;;;2610700;54;20395;-73
2023/06/27 04:51:40;;;;;;;11.73;10.10;;;16.80;99.90;;;;;;2610437;54;20135;-73
2023/06/27 04:57:27;;;;;;;13.67;12.50;;;17.20;99.90;;;;;;2610852;54;20134;-73
2023/06/27 05:03:17;;;;;;;11.73;10.70;;;17.30;99.90;;;;;;2611922;54;20130;-72
2023/06/27 05:09:06;;;;;;;15.80;11.93;;;17.80;99.90;;;;;;2611606;54;20925;-73
2023/06/27 05:14:54;;;;;;;13.27;12.37;;;17.60;99.90;;;;;;2608098;54;20410;-71
2023/06/27 05:20:42;;;;;;;13.30;12.40;;;17.80;99.90;;;;;;2614299;54;20142;-70
2023/06/27 05:26:32;;;;;;;13.57;12.17;;;17.90;99.90;;;;;;2612807;54;20491;-70
2023/06/27 05:36:26;;;;;;;13.63;12.20;;;18.00;99.90;;;;;;2613278;46;20454;-71
2023/06/27 05:42:13;;;;;;;12.80;11.90;;;17.50;99.90;;;;;;2613100;54;21036;-69
2023/06/27 05:48:02;;;;;;;14.00;12.70;;;17.50;99.90;;;;;;2613739;54;20178;-71
2023/06/27 05:53:50;;;;;;;12.97;12.03;;;17.60;99.90;;;;;;2614489;46;20386;-71
2023/06/27 05:59:37;;;;;;;14.13;12.77;;;17.20;99.90;;;;;;2614499;54;20238;-71
2023/06/27 06:05:25;;;;;;;12.70;11.80;;;17.30;99.90;;;;;;2612589;54;20668;-70
2023/06/27 06:07:54;;;;;;;14.13;12.73;;;17.10;99.90;;;;;;2607078;54;20383;-71
2023/06/27 06:10:21;;;;;;;14.13;12.63;;;17.10;99.90;;;;;;2609202;54;20185;-72
2023/06/27 06:16:09;;;;;;;13.40;12.33;;;17.10;99.90;;;;;;2613706;54;20386;-72
2023/06/27 06:21:57;;;;;;;11.93;10.87;;;17.10;99.90;;;;;;2613153;54;20134;-71
2023/06/27 06:27:45;;;;;;;13.27;11.93;;;18.30;99.90;;;;;;2612583;54;20146;-72
2023/06/27 06:36:55;;;;;;;14.63;13.43;;;18.70;99.90;;;;;;2611031;54;20581;-71
2023/06/27 06:42:42;;;;;;;15.83;14.30;;;18.90;99.90;;;;;;2613036;54;20395;-71
2023/06/27 06:48:30;;;;;;;14.13;12.70;;;18.60;99.90;;;;;;2613656;54;20182;-71
2023/06/27 06:54:18;;;;;;;16.10;14.63;;;19.60;99.90;;;;;;2612680;54;20114;-72
2023/06/27 07:00:07;;;;;;;16.23;14.80;;;19.50;99.90;;;;;;2612530;54;20183;-71
2023/06/27 07:05:55;;;;;;;15.43;14.53;;;19.70;99.90;;;;;;2613723;54;20906;-70
2023/06/27 07:11:42;;;;;;;16.50;14.80;;;19.80;99.90;;;;;;2611979;54;20114;-71
2023/06/27 07:17:30;;;;;;;16.10;14.70;;;20.40;99.90;;;;;;2612376;54;20146;-72
2023/06/27 07:23:18;;;;;;;16.47;15.00;;;20.30;99.90;;;;;;2612042;39;21399;-71
2023/06/27 07:29:06;;;;;;;19.17;16.97;;;20.20;99.90;;;;;;2612273;54;20122;-71
2023/06/27 07:32:24;;;;;;;17.90;16.23;;;20.70;99.90;;;;;;2613538;54;20399;-71
2023/06/27 07:34:49;;;;;;;17.53;15.93;;;20.60;99.90;;;;;;2611841;47;21002;-70
2023/06/27 07:40:37;;;;;;;21.97;17.77;;;21.20;99.90;;;;;;2613166;54;20158;-72
2023/06/27 07:46:25;;;;;;;18.37;16.70;;;21.30;99.90;;;;;;2613355;54;20645;-71
2023/06/27 07:52:12;;;;;;;17.73;16.53;;;21.20;99.90;;;;;;2613927;54;20130;-70
2023/06/27 07:58:00;;;;;;;17.17;15.77;;;22.10;99.90;;;;;;2612209;54;20255;-72
2023/06/27 08:03:48;;;;;;;16.73;15.30;;;21.60;99.90;;;;;;2614005;54;20235;-71
2023/06/27 08:09:36;;;;;;;18.17;16.50;;;22.00;99.90;;;;;;2613983;54;20131;-72
2023/06/27 08:15:25;;;;;;;17.47;16.17;;;22.20;99.90;;;;;;2614441;39;20476;-71
2023/06/27 08:21:12;;;;;;;16.53;15.20;;;23.00;99.90;;;;;;2613100;54;20351;-72
2023/06/27 08:27:00;;;;;;;18.33;16.73;;;24.20;99.90;;;;;;2612035;54;20123;-73
2023/06/27 08:36:31;;;;;;;19.30;17.83;;;23.80;99.90;;;;;;2611595;54;20388;-72
2023/06/27 08:38:57;;;;;;;18.40;17.27;;;23.20;99.90;;;;;;2612867;39;20821;-72
2023/06/27 08:44:45;;;;;;;19.00;17.63;;;22.30;99.90;;;;;;2607284;54;20147;-71
2023/06/27 08:50:37;;;;;;;18.90;17.60;;;23.20;96.90;;;;;;2610197;54;20219;-71
2023/06/27 08:56:27;;;;;;;17.40;16.40;;;22.90;96.20;;;;;;2609033;54;20379;-71
2023/06/27 09:02:15;;;;;;;16.73;15.53;;;24.20;93.30;;;;;;2610672;54;20471;-71
2023/06/27 09:08:03;;;;;;;17.07;15.67;;;22.80;76.80;;;;;;2610767;54;20387;-71
2023/06/27 09:13:51;;;;;;;18.17;17.07;;;22.90;79.60;;;;;;2609546;54;21045;-72
2023/06/27 09:19:39;;;;;;;17.37;16.17;;;22.70;81.50;;;;;;2610234;54;20126;-70
2023/06/27 09:25:27;;;;;;;17.70;16.40;;;22.20;81.50;;;;;;2610025;54;20135;-70
2023/06/27 09:31:17;;;;;;;18.33;16.97;;;22.90;77.20;;;;;;2610265;54;20147;-70
2023/06/27 09:34:35;;;;;;;18.10;17.00;;;21.80;78.60;;;;;;2609414;54;20458;-70
2023/06/27 09:37:02;;;;;;;17.20;16.13;;;22.50;89.90;;;;;;2610601;54;20481;-71
2023/06/27 09:42:55;;;;;;;17.83;16.53;;;23.30;80.80;;;;;;2613898;54;20492;-71
2023/06/27 09:48:43;;;;;;;18.90;17.20;;;22.80;82.40;;;;;;2614294;54;20359;-71
2023/06/27 09:54:30;;;;;;;19.97;18.50;;;23.70;76.20;;;;;;2611095;54;20226;-72
2023/06/27 10:00:20;;;;;;;17.73;16.83;;;23.60;68.00;;;;;;2615096;31;20590;-71
2023/06/27 10:06:08;;;;;;;18.03;16.90;;;24.30;58.90;;;;;;2610552;54;20499;-71
2023/06/27 10:11:55;;;;;;;17.30;16.37;;;24.30;56.00;;;;;;2611826;54;20204;-71
2023/06/27 10:17:45;;;;;;;17.27;16.20;;;24.00;49.00;;;;;;2609946;54;20656;-72
2023/06/27 10:23:33;;;;;;;17.83;16.57;;;23.90;46.70;;;;;;2610695;54;20440;-71
2023/06/27 10:29:22;;;;;;;17.20;16.20;;;23.10;44.60;;;;;;2609780;54;21021;-71
2023/06/27 10:45:30;;;;;;;17.50;16.43;;;23.20;37.60;;;;;;2613525;54;20379;-71
2023/06/27 10:51:22;;;;;;;16.90;15.90;;;22.80;46.70;;;;;;2612176;54;20134;-71
2023/06/27 10:57:16;;;;;;;16.20;15.30;;;22.50;42.50;;;;;;2610176;54;21239;-71
2023/06/27 11:03:04;;;;;;;15.73;15.03;;;23.20;40.90;;;;;;2612678;54;20387;-71
2023/06/27 11:08:56;;;;;;;16.80;15.80;;;23.10;39.20;;;;;;2609985;39;21000;-70
2023/06/27 11:14:45;;;;;;;17.33;16.07;;;23.10;36.00;;;;;;2610511;54;20438;-71
2023/06/27 11:20:35;;;;;;;19.10;18.00;;;24.20;41.10;;;;;;2610647;54;20368;-70
2023/06/27 11:26:24;;;;;;;18.13;16.93;;;23.00;35.30;;;;;;2609937;54;20584;-72
2023/06/27 11:32:12;;;;;;;16.70;16.00;;;24.00;38.30;;;;;;2612806;54;21056;-71
2023/06/27 11:34:42;;;;;;;19.27;16.80;;;23.30;40.10;;;;;;2612864;50;20424;-70
2023/06/27 11:37:10;;;;;;;18.33;17.33;;;23.00;43.10;;;;;;2613089;54;20131;-70
2023/06/27 11:43:06;;;;;;;18.57;17.10;;;23.00;45.10;;;;;;2609091;54;20516;-71
2023/06/27 11:48:53;;;;;;;17.13;15.87;;;22.40;42.90;;;;;;2609023;54;20379;-72
2023/06/27 11:54:49;;;;;;;17.37;16.37;;;22.80;45.20;;;;;;2607003;54;20150;-72
2023/06/27 12:00:38;;;;;;;16.30;15.50;;;24.40;22.40;;;;;;2608515;54;20383;-72
2023/06/27 12:06:32;;;;;;;15.40;14.60;;;24.20;18.70;;;;;;2609682;54;20398;-71
2023/06/27 12:12:19;;;;;;;16.57;15.70;;;22.60;29.00;;;;;;2609242;46;20382;-70
2023/06/27 12:18:08;;;;;;;16.70;15.77;;;22.90;32.10;;;;;;2608646;39;20382;-71
2023/06/27 12:23:55;;;;;;;18.63;17.40;;;22.30;30.80;;;;;;2608965;54;20428;-71
2023/06/27 12:29:43;;;;;;;16.40;15.40;;;22.80;32.10;;;;;;2609544;54;20163;-72
2023/06/27 12:39:08;;;;;;;16.13;15.23;;;23.80;22.40;;;;;;2609649;54;20455;-71
2023/06/27 12:44:58;;;;;;;16.83;15.83;;;24.00;19.10;;;;;;2610181;54;20423;-70
2023/06/27 12:50:46;;;;;;;18.40;17.33;;;24.70;17.10;;;;;;2611513;54;20394;-71
2023/06/27 12:56:33;;;;;;;17.90;16.60;;;25.80;16.90;;;;;;2612023;46;20166;-71
2023/06/27 13:02:21;;;;;;;16.53;15.67;;;25.30;14.10;;;;;;2614239;54;20140;-71
2023/06/27 13:08:09;;;;;;;16.50;15.70;;;24.30;13.20;;;;;;2614550;39;20581;-71
2023/06/27 13:13:56;;;;;;;17.50;16.30;;;24.80;14.60;;;;;;2612109;54;20694;-71
2023/06/27 13:19:44;;;;;;;17.33;16.50;;;25.10;10.30;;;;;;2608385;54;20239;-71
2023/06/27 13:25:32;;;;;;;16.30;15.50;;;24.60;14.00;;;;;;2609153;54;20136;-70
2023/06/27 13:31:20;;;;;;;16.90;15.80;;;25.50;11.40;;;;;;2611446;46;20166;-70
2023/06/27 13:34:40;;;;;;;17.23;15.63;;;26.50;10.00;;;;;;2608450;54;20474;-71
2023/06/27 13:37:06;;;;;;;15.60;15.00;;;26.20;7.90;;;;;;2609923;54;20257;-71
2023/06/27 13:42:53;;;;;;;16.40;15.50;;;25.60;3.90;;;;;;2610018;54;20176;-70
2023/06/27 13:48:41;;;;;;;16.30;15.60;;;24.90;3.20;;;;;;2609564;54;20195;-71
2023/06/27 13:54:32;;;;;;;16.30;15.63;;;24.50;1.80;;;;;;2610545;54;20177;-72
2023/06/27 14:00:20;;;;;;;17.13;16.43;;;24.00;3.20;;;;;;2608556;54;21209;-71
2023/06/27 14:06:08;;;;;;;16.57;15.97;;;25.40;3.30;;;;;;2608797;54;20147;-70
2023/06/27 14:11:56;;;;;;;17.67;16.67;;;25.50;2.60;;;;;;2611291;39;20675;-71
2023/06/27 14:17:44;;;;;;;16.30;15.70;;;25.00;1.00;;;;;;2609146;54;20126;-71
2023/06/27 14:23:32;;;;;;;16.07;15.43;;;25.50;1.00;;;;;;2608901;54;20182;-72
2023/06/27 14:29:20;;;;;;;15.93;14.97;;;25.00;1.00;;;;;;2609351;54;20134;-71
2023/06/27 14:39:07;;;;;;;15.93;15.23;;;24.80;1.00;;;;;;2607649;54;20380;-70
2023/06/27 14:44:54;;;;;;;15.67;15.07;;;25.50;1.00;;;;;;2608568;54;20431;-70
2023/06/27 14:50:44;;;;;;;16.70;16.00;;;24.90;1.00;;;;;;2608697;54;20673;-71
2023/06/27 14:56:31;;;;;;;17.07;16.20;;;24.20;1.30;;;;;;2608212;54;20447;-71
2023/06/27 15:02:19;;;;;;;16.10;15.40;;;23.80;1.60;;;;;;2610081;54;20130;-70
2023/06/27 15:05:13;;;;;;;15.93;15.30;;;24.10;2.10;;;;;;2609845;39;20774;-71
2023/06/27 15:07:39;;;;;;;15.80;15.20;;;23.90;2.90;;;;;;2611227;54;20229;-71
2023/06/27 15:13:27;;;;;;;16.60;15.90;;;24.00;2.70;;;;;;2613766;54;20435;-70
2023/06/27 15:19:15;;;;;;;15.90;15.30;;;24.10;3.90;;;;;;2612745;54;20158;-71
2023/06/27 15:25:03;;;;;;;15.20;14.33;;;24.30;4.40;;;;;;2611798;54;20134;-71
2023/06/27 15:30:51;;;;;;;15.67;14.97;;;23.90;5.60;;;;;;2610160;39;20851;-71
2023/06/27 15:40:01;;;;;;;14.73;14.03;;;23.80;5.50;;;;;;2612797;54;20422;-71
2023/06/27 15:45:49;;;;;;;15.20;14.50;;;23.00;5.60;;;;;;2613456;54;20129;-72
2023/06/27 15:51:37;;;;;;;15.40;14.70;;;23.10;6.60;;;;;;2614356;46;20206;-71
2023/06/27 15:57:25;;;;;;;15.40;14.70;;;23.30;8.20;;;;;;2614653;54;20154;-70
2023/06/27 16:03:12;;;;;;;15.80;15.10;;;23.00;7.00;;;;;;2609780;54;20156;-71
2023/06/27 16:09:00;;;;;;;14.07;13.27;;;22.80;10.20;;;;;;2614626;54;20134;-72
2023/06/27 16:14:47;;;;;;;13.90;13.30;;;23.40;14.10;;;;;;2614732;54;20201;-72
2023/06/27 16:17:52;;;;;;;15.83;14.93;;;22.80;11.80;;;;;;2613895;54;20411;-71
2023/06/27 16:20:17;;;;;;;14.50;13.90;;;22.80;12.40;;;;;;2614456;54;20169;-72
2023/06/27 16:26:05;;;;;;;14.63;13.83;;;23.00;15.30;;;;;;2614956;54;20192;-71
2023/06/27 16:31:53;;;;;;;15.07;14.37;;;22.90;16.00;;;;;;2614968;54;20251;-71
2023/06/27 16:37:41;;;;;;;16.20;15.33;;;22.70;15.90;;;;;;2615316;39;20610;-71
2023/06/27 16:43:29;;;;;;;16.20;15.00;;;22.70;16.90;;;;;;2614589;54;20146;-71
2023/06/27 16:49:17;;;;;;;15.73;14.93;;;22.80;18.20;;;;;;2614715;54;20166;-71
2023/06/27 16:55:05;;;;;;;16.67;15.77;;;22.80;19.80;;;;;;2614791;39;20813;-71
2023/06/27 17:00:52;;;;;;;14.77;13.87;;;22.70;20.20;;;;;;2612516;54;20395;-72
2023/06/27 17:06:40;;;;;;;16.03;15.03;;;22.40;21.60;;;;;;2613468;54;20134;-71
2023/06/27 17:12:28;;;;;;;14.97;14.30;;;22.50;23.70;;;;;;2615109;54;20130;-71
2023/06/27 17:18:16;;;;;;;15.30;14.10;;;22.20;25.30;;;;;;2612014;54;20134;-71
2023/06/27 17:24:04;;;;;;;14.00;13.00;;;21.90;27.30;;;;;;2614863;54;20122;-72
2023/06/27 17:29:52;;;;;;;15.00;14.13;;;21.90;28.10;;;;;;2613215;54;20415;-72
2023/06/27 17:39:57;;;;;;;15.27;14.10;;;21.60;28.60;;;;;;2612967;54;21300;-71
2023/06/27 17:45:45;;;;;;;14.70;14.00;;;21.40;31.20;;;;;;2613305;54;20455;-72
2023/06/27 17:51:33;;;;;;;15.90;14.73;;;21.30;31.80;;;;;;2613072;54;20130;-71
2023/06/27 17:57:20;;;;;;;15.90;14.73;;;21.20;31.70;;;;;;2611665;54;20145;-72
2023/06/27 18:03:08;;;;;;;15.40;14.63;;;21.30;32.40;;;;;;2611195;54;20267;-71
2023/06/27 18:08:56;;;;;;;14.87;14.17;;;21.10;34.10;;;;;;2613816;54;20134;-71
2023/06/27 18:14:43;;;;;;;17.23;16.37;;;21.00;34.90;;;;;;2614098;54;20127;-72
2023/06/27 18:20:31;;;;;;;16.20;15.23;;;21.00;37.80;;;;;;2614469;54;20149;-71
2023/06/27 18:26:19;;;;;;;15.70;14.83;;;20.90;36.70;;;;;;2614722;54;20139;-73
2023/06/27 18:32:08;;;;;;;15.43;14.73;;;20.80;39.80;;;;;;2611048;54;20146;-71
2023/06/27 18:35:25;;;;;;;16.20;15.37;;;20.80;38.90;;;;;;2613713;54;20511;-71
2023/06/27 18:37:51;;;;;;;16.23;15.33;;;20.80;38.80;;;;;;2609505;39;20807;-72
2023/06/27 18:43:38;;;;;;;16.13;15.20;;;20.70;39.70;;;;;;2613087;54;20243;-71
2023/06/27 18:49:26;;;;;;;16.30;15.50;;;20.60;42.50;;;;;;2613235;39;20575;-72
2023/06/27 18:55:14;;;;;;;17.50;16.20;;;20.50;45.20;;;;;;2613815;54;20161;-71
2023/06/27 19:01:02;;;;;;;16.63;15.40;;;20.40;48.10;;;;;;2611253;54;20371;-71
2023/06/27 19:06:50;;;;;;;15.60;14.90;;;20.40;49.90;;;;;;2614040;54;20423;-72
2023/06/27 19:12:39;;;;;;;15.18;14.18;;;20.20;54.40;;;;;;2612901;54;20402;-71
2023/06/27 19:18:26;;;;;;;14.23;13.43;;;20.20;59.40;;;;;;2611763;39;20522;-71
2023/06/27 19:24:14;;;;;;;15.60;14.70;;;20.10;54.90;;;;;;2613134;54;20411;-72
2023/06/27 19:30:02;;;;;;;15.93;15.07;;;20.00;57.70;;;;;;2611638;54;20134;-70
2023/06/27 19:39:55;;;;;;;15.70;14.80;;;19.90;59.90;;;;;;2610620;54;20399;-72
2023/06/27 19:45:43;;;;;;;16.63;15.73;;;19.90;60.20;;;;;;2609914;54;20383;-71
2023/06/27 19:51:31;;;;;;;15.97;15.20;;;19.80;60.30;;;;;;2610390;54;20162;-72
2023/06/27 19:57:18;;;;;;;17.03;15.63;;;19.80;58.10;;;;;;2613063;54;20395;-72
2023/06/27 20:03:07;;;;;;;17.10;16.00;;;19.70;58.00;;;;;;2613421;54;20130;-72
2023/06/27 20:08:54;;;;;;;15.90;15.20;;;19.70;55.90;;;;;;2613238;54;20375;-71
2023/06/27 20:14:42;;;;;;;15.50;14.90;;;19.60;56.50;;;;;;2614158;54;20227;-71
2023/06/27 20:20:31;;;;;;;15.90;15.20;;;19.50;55.30;;;;;;2609300;54;20146;-72
2023/06/27 20:26:19;;;;;;;17.00;16.20;;;19.50;54.40;;;;;;2610932;54;20507;-71
2023/06/27 20:32:07;;;;;;;17.70;16.80;;;19.50;53.30;;;;;;2612780;54;20123;-72
2023/06/27 20:35:25;;;;;;;16.80;16.00;;;19.40;55.80;;;;;;2613848;47;20404;-71
2023/06/27 20:37:50;;;;;;;16.97;16.00;;;19.30;58.40;;;;;;2613884;54;20404;-72
2023/06/27 20:43:38;;;;;;;17.17;16.27;;;19.30;60.80;;;;;;2613744;54;20133;-72
2023/06/27 20:49:25;;;;;;;16.60;15.80;;;19.30;60.50;;;;;;2614368;54;20150;-71
2023/06/27 20:55:13;;;;;;;17.03;15.60;;;19.30;61.60;;;;;;2614758;54;20154;-72
2023/06/27 21:01:01;;;;;;;15.60;14.70;;;19.20;64.70;;;;;;2614402;54;20178;-72
2023/06/27 21:06:49;;;;;;;15.70;15.00;;;19.10;69.80;;;;;;2615525;39;20521;-72
2023/06/27 21:12:37;;;;;;;14.93;14.03;;;19.10;72.60;;;;;;2614931;54;20127;-72
2023/06/27 21:18:25;;;;;;;15.87;14.97;;;18.90;81.70;;;;;;2613322;54;20376;-71
2023/06/27 21:24:12;;;;;;;16.93;15.60;;;18.90;81.80;;;;;;2611370;54;20690;-71
2023/06/27 21:30:00;;;;;;;14.17;13.57;;;18.90;87.80;;;;;;2613167;54;20222;-71
2023/06/27 21:39:56;;;;;;;16.17;15.57;;;18.80;93.50;;;;;;2612277;39;20697;-71
2023/06/27 21:45:44;;;;;;;15.87;15.03;;;18.70;96.70;;;;;;2607771;54;20434;-70
2023/06/27 21:51:31;;;;;;;16.80;15.50;;;18.60;99.90;;;;;;2611396;54;20134;-71
2023/06/27 21:57:19;;;;;;;16.00;14.87;;;18.50;99.90;;;;;;2611268;54;20157;-72
2023/06/27 22:03:10;;;;;;;15.63;14.97;;;18.40;99.90;;;;;;2612653;39;20952;-72
2023/06/27 22:08:57;;;;;;;15.70;14.97;;;18.30;99.90;;;;;;2611526;54;20403;-70
2023/06/27 22:14:45;;;;;;;15.37;14.67;;;18.30;99.90;;;;;;2610588;54;20142;-70
2023/06/27 22:20:33;;;;;;;15.00;13.93;;;18.20;99.90;;;;;;2612897;54;20757;-71
2023/06/27 22:26:21;;;;;;;14.57;13.77;;;18.00;99.90;;;;;;2614705;39;20604;-70
2023/06/27 22:32:08;;;;;;;13.80;13.10;;;18.00;99.90;;;;;;2614303;54;20637;-71
2023/06/27 22:35:26;;;;;;;15.30;14.50;;;18.00;99.90;;;;;;2612113;54;20399;-71
2023/06/27 22:37:51;;;;;;;14.83;14.13;;;18.00;99.90;;;;;;2613599;54;20155;-71
2023/06/27 22:43:39;;;;;;;14.83;13.90;;;17.90;99.90;;;;;;2611086;31;20623;-71
2023/06/27 22:49:27;;;;;;;15.67;14.47;;;17.80;99.90;;;;;;2612636;54;20146;-70
2023/06/27 22:55:14;;;;;;;15.23;14.23;;;17.60;99.90;;;;;;2613206;54;20119;-71
2023/06/27 23:01:03;;;;;;;15.10;14.20;;;17.50;99.90;;;;;;2612827;54;20127;-71
2023/06/27 23:06:51;;;;;;;15.43;14.63;;;17.40;99.90;;;;;;2614583;54;20431;-70
2023/06/27 23:12:38;;;;;;;15.97;14.53;;;17.20;99.90;;;;;;2612637;54;20142;-70
2023/06/27 23:18:30;;;;;;;15.00;14.17;;;17.10;99.90;;;;;;2614448;54;20659;-71
2023/06/27 23:24:26;;;;;;;15.13;14.23;;;17.00;99.90;;;;;;2614269;54;20942;-71
2023/06/27 23:30:15;;;;;;;13.83;13.10;;;17.00;99.90;;;;;;2615534;31;20841;-71
2023/06/27 23:39:56;;;;;;;14.00;13.27;;;16.70;99.90;;;;;;2612638;54;20471;-70
2023/06/27 23:45:43;;;;;;;13.60;12.80;;;16.60;99.90;;;;;;2613817;54;20378;-70
2023/06/27 23:51:31;;;;;;;14.33;13.53;;;16.50;99.90;;;;;;2612994;54;20150;-69
2023/06/27 23:57:19;;;;;;;14.00;13.20;;;16.50;99.90;;;;;;2614300;31;20603;-70
